Time;durP1;ratioP1;P1;durP2;ratioP2;P2;SDS_P1;SDS_P2;PMS_P1;PMS_P2;Temp;Humidity;BMP_temperature;BMP_pressure;BME280_temperature;BME280_humidity;BME280_pressure;Samples;Min_cycle;Max_cycle;Signal;HPM_P1;HPM_P2
2021/03/02 00:01:17;;;;;;;60.33;35.08;;;;;;;;;;5055886;28;20040;-68
2021/03/02 00:04:22;;;;;;;64.07;36.40;;;;;;;;;;5055072;28;20392;-68
2021/03/02 00:07:27;;;;;;;60.45;38.50;;;;;;;;;;5055396;28;20044;-68
2021/03/02 00:10:32;;;;;;;72.35;40.17;;;;;;;;;;5055472;28;20063;-69
2021/03/02 00:13:36;;;;;;;68.50;39.90;;;;;;;;;;5055483;28;20048;-68
2021/03/02 00:16:44;;;;;;;60.13;38.20;;;;;;;;;;5055326;28;20070;-68
2021/03/02 00:19:55;;;;;;;60.28;36.30;;;;;;;;;;5055549;28;20040;-68
2021/03/02 00:23:02;;;;;;;61.28;35.38;;;;;;;;;;5055315;28;20491;-69
2021/03/02 00:26:07;;;;;;;59.75;37.88;;;;;;;;;;5054435;28;20406;-69
2021/03/02 00:29:17;;;;;;;55.33;35.60;;;;;;;;;;5055687;28;20044;-68
2021/03/02 00:32:22;;;;;;;60.92;35.45;;;;;;;;;;5054547;28;20404;-68
2021/03/02 00:35:26;;;;;;;60.15;36.17;;;;;;;;;;5055145;28;20048;-69
2021/03/02 00:38:31;;;;;;;52.90;34.10;;;;;;;;;;5055234;28;20451;-68
2021/03/02 00:41:35;;;;;;;58.38;34.60;;;;;;;;;;5055387;28;20044;-68
2021/03/02 00:44:39;;;;;;;63.60;35.97;;;;;;;;;;5055078;28;20044;-68
2021/03/02 00:47:44;;;;;;;55.38;34.97;;;;;;;;;;5054763;28;20040;-68
2021/03/02 00:50:49;;;;;;;56.30;33.97;;;;;;;;;;5053908;28;20036;-68
2021/03/02 00:53:53;;;;;;;64.38;37.05;;;;;;;;;;5054937;28;20056;-68
2021/03/02 00:56:57;;;;;;;56.47;35.40;;;;;;;;;;5054544;28;20059;-68
2021/03/02 01:00:03;;;;;;;48.38;30.17;;;;;;;;;;5053747;28;20487;-68
2021/03/02 01:03:09;;;;;;;47.30;30.13;;;;;;;;;;5054759;28;20047;-68
2021/03/02 01:06:17;;;;;;;55.58;30.77;;;;;;;;;;5053856;28;20048;-68
2021/03/02 01:09:22;;;;;;;47.90;27.60;;;;;;;;;;5053646;28;20506;-68
2021/03/02 01:12:28;;;;;;;38.30;23.38;;;;;;;;;;5054550;28;20040;-68
2021/03/02 01:15:36;;;;;;;51.92;28.60;;;;;;;;;;5053541;28;20056;-68
2021/03/02 01:18:40;;;;;;;50.17;29.25;;;;;;;;;;5054481;28;20044;-68
2021/03/02 01:21:44;;;;;;;45.85;28.35;;;;;;;;;;5054134;28;20374;-68
2021/03/02 01:24:48;;;;;;;46.80;29.85;;;;;;;;;;5054377;28;20048;-68
2021/03/02 01:27:53;;;;;;;56.28;30.88;;;;;;;;;;5052998;28;20047;-69
2021/03/02 01:30:57;;;;;;;48.40;29.95;;;;;;;;;;5053738;28;20483;-68
2021/03/02 01:34:04;;;;;;;50.95;30.15;;;;;;;;;;5053665;28;20052;-68
2021/03/02 01:37:09;;;;;;;48.83;28.23;;;;;;;;;;5053861;28;20048;-67
2021/03/02 01:40:14;;;;;;;42.05;25.10;;;;;;;;;;5054086;28;20056;-67
2021/03/02 01:43:18;;;;;;;45.35;27.15;;;;;;;;;;5054042;28;20036;-67
2021/03/02 01:46:22;;;;;;;47.25;26.30;;;;;;;;;;5053682;28;20124;-67
2021/03/02 01:49:27;;;;;;;53.75;27.30;;;;;;;;;;5053709;28;20483;-67
2021/03/02 01:52:32;;;;;;;44.38;26.88;;;;;;;;;;5053089;28;20044;-67
2021/03/02 01:55:36;;;;;;;52.58;28.02;;;;;;;;;;5053687;28;20056;-67
2021/03/02 01:58:40;;;;;;;44.95;28.40;;;;;;;;;;5053781;28;20048;-67
2021/03/02 02:01:44;;;;;;;43.65;26.58;;;;;;;;;;5053414;28;20039;-67
2021/03/02 02:04:54;;;;;;;45.22;27.50;;;;;;;;;;5052630;28;20040;-67
2021/03/02 02:08:02;;;;;;;44.47;27.17;;;;;;;;;;5053677;28;20056;-67
2021/03/02 02:11:27;;;;;;;46.85;26.63;;;;;;;;;;5052513;28;20396;-67
2021/03/02 02:14:41;;;;;;;45.90;25.92;;;;;;;;;;5053589;28;20376;-68
2021/03/02 02:17:46;;;;;;;45.90;25.65;;;;;;;;;;5053483;28;20047;-67
2021/03/02 02:20:58;;;;;;;41.40;24.65;;;;;;;;;;5053514;28;20060;-68
2021/03/02 02:24:05;;;;;;;42.13;24.02;;;;;;;;;;5052621;28;20483;-68
2021/03/02 02:27:09;;;;;;;44.90;24.80;;;;;;;;;;5053417;28;20044;-67
2021/03/02 02:30:14;;;;;;;39.35;23.63;;;;;;;;;;5053078;28;20052;-67
2021/03/02 02:33:19;;;;;;;37.38;22.48;;;;;;;;;;5053338;28;20044;-67
2021/03/02 02:36:24;;;;;;;34.95;20.98;;;;;;;;;;5053037;28;20071;-67
2021/03/02 02:39:31;;;;;;;38.25;21.63;;;;;;;;;;5053260;28;20353;-68
2021/03/02 02:42:35;;;;;;;38.72;22.48;;;;;;;;;;5053241;28;20048;-67
2021/03/02 02:45:41;;;;;;;38.35;20.23;;;;;;;;;;5055048;28;20044;-67
2021/03/02 02:48:47;;;;;;;36.10;19.95;;;;;;;;;;5057057;28;20040;-67
2021/03/02 02:51:52;;;;;;;30.42;18.30;;;;;;;;;;5057303;28;20044;-68
2021/03/02 02:54:56;;;;;;;30.52;18.20;;;;;;;;;;5056861;28;20048;-67
2021/03/02 02:58:03;;;;;;;30.50;18.63;;;;;;;;;;5056933;28;20056;-67
2021/03/02 03:01:08;;;;;;;34.65;18.42;;;;;;;;;;5056038;28;20040;-68
2021/03/02 03:04:15;;;;;;;30.65;15.98;;;;;;;;;;5056754;28;20067;-67
2021/03/02 03:07:22;;;;;;;32.38;16.60;;;;;;;;;;5056694;28;20052;-67
2021/03/02 03:10:27;;;;;;;26.48;15.73;;;;;;;;;;5056702;28;20048;-67
2021/03/02 03:13:39;;;;;;;31.65;16.15;;;;;;;;;;5056443;28;20048;-67
2021/03/02 03:16:45;;;;;;;29.73;16.48;;;;;;;;;;5056475;28;20052;-68
2021/03/02 03:19:50;;;;;;;29.77;15.60;;;;;;;;;;5056526;28;20065;-67
2021/03/02 03:22:55;;;;;;;28.95;16.73;;;;;;;;;;5055649;28;20052;-67
2021/03/02 03:26:00;;;;;;;25.65;15.65;;;;;;;;;;5056735;28;20048;-67
2021/03/02 03:29:04;;;;;;;26.92;16.00;;;;;;;;;;5056611;28;20044;-67
2021/03/02 03:32:09;;;;;;;27.75;16.45;;;;;;;;;;5055988;28;20067;-67
2021/03/02 03:35:14;;;;;;;24.77;15.25;;;;;;;;;;5056267;28;20048;-67
2021/03/02 03:38:18;;;;;;;26.85;15.02;;;;;;;;;;5056559;28;20052;-67
2021/03/02 03:41:23;;;;;;;34.90;15.70;;;;;;;;;;5056262;28;20044;-67
2021/03/02 03:44:28;;;;;;;28.58;15.65;;;;;;;;;;5056677;28;20052;-67
2021/03/02 03:47:32;;;;;;;26.75;14.73;;;;;;;;;;5056012;28;20044;-67
2021/03/02 03:50:36;;;;;;;29.73;14.82;;;;;;;;;;5055768;28;20487;-67
2021/03/02 03:53:41;;;;;;;27.02;14.48;;;;;;;;;;5055979;28;20389;-67
2021/03/02 03:56:45;;;;;;;30.25;14.52;;;;;;;;;;5055304;28;20491;-67
2021/03/02 03:59:50;;;;;;;22.38;14.80;;;;;;;;;;5056062;28;20044;-67
2021/03/02 04:02:54;;;;;;;27.20;14.27;;;;;;;;;;5055965;28;20052;-67
2021/03/02 04:06:00;;;;;;;26.30;14.75;;;;;;;;;;5055440;28;20040;-67
2021/03/02 04:09:05;;;;;;;24.40;14.57;;;;;;;;;;5055618;28;20044;-67
2021/03/02 04:12:10;;;;;;;26.60;14.90;;;;;;;;;;5055600;28;20077;-67
2021/03/02 04:15:17;;;;;;;27.08;14.65;;;;;;;;;;5054637;28;20040;-67
2021/03/02 04:18:22;;;;;;;19.05;12.85;;;;;;;;;;5055512;28;20068;-67
2021/03/02 04:21:26;;;;;;;23.20;14.27;;;;;;;;;;5055663;28;20108;-67
2021/03/02 04:24:31;;;;;;;22.00;13.35;;;;;;;;;;5055288;28;20044;-67
2021/03/02 04:27:35;;;;;;;24.10;14.50;;;;;;;;;;5055801;28;20040;-67
2021/03/02 04:30:39;;;;;;;23.08;13.23;;;;;;;;;;5055048;28;20052;-67
2021/03/02 04:33:44;;;;;;;22.60;13.82;;;;;;;;;;5055430;28;20044;-67
2021/03/02 04:36:48;;;;;;;27.73;14.20;;;;;;;;;;5055084;28;20056;-68
2021/03/02 04:39:52;;;;;;;35.50;15.32;;;;;;;;;;5055136;28;20043;-67
2021/03/02 04:42:56;;;;;;;22.70;13.88;;;;;;;;;;5055130;28;20052;-67
2021/03/02 04:46:01;;;;;;;23.10;12.55;;;;;;;;;;5055107;28;20047;-67
2021/03/02 04:49:05;;;;;;;25.65;13.15;;;;;;;;;;5054954;28;20047;-67
2021/03/02 04:52:09;;;;;;;21.30;13.00;;;;;;;;;;5055108;28;20067;-68
2021/03/02 04:55:13;;;;;;;19.02;12.32;;;;;;;;;;5055062;28;20052;-68
2021/03/02 04:58:18;;;;;;;27.33;13.60;;;;;;;;;;5054829;28;20044;-69
2021/03/02 05:01:22;;;;;;;24.25;12.75;;;;;;;;;;5054491;28;20043;-68
2021/03/02 05:04:27;;;;;;;24.85;10.80;;;;;;;;;;5055175;28;20040;-68
2021/03/02 05:07:31;;;;;;;18.83;9.75;;;;;;;;;;5054028;28;20044;-68
2021/03/02 05:10:35;;;;;;;13.00;6.68;;;;;;;;;;5054528;28;20052;-68
2021/03/02 05:13:39;;;;;;;14.98;8.43;;;;;;;;;;5054600;28;20381;-68
2021/03/02 05:16:44;;;;;;;11.88;7.03;;;;;;;;;;5053369;28;20049;-68
2021/03/02 05:19:48;;;;;;;11.45;6.55;;;;;;;;;;5054408;28;20041;-68
2021/03/02 05:22:52;;;;;;;8.85;6.20;;;;;;;;;;5054231;28;20051;-68
2021/03/02 05:25:57;;;;;;;16.27;6.18;;;;;;;;;;5054502;28;20041;-68
2021/03/02 05:29:01;;;;;;;14.85;6.63;;;;;;;;;;5054425;28;20033;-68
2021/03/02 05:32:05;;;;;;;9.85;6.13;;;;;;;;;;5055379;28;20519;-68
2021/03/02 05:35:10;;;;;;;10.73;6.13;;;;;;;;;;5053816;28;20041;-68
2021/03/02 05:38:14;;;;;;;13.98;6.18;;;;;;;;;;5054247;28;20108;-69
2021/03/02 05:41:18;;;;;;;10.40;6.47;;;;;;;;;;5041927;28;20372;-68
2021/03/02 05:44:22;;;;;;;18.13;6.47;;;;;;;;;;5053852;28;20044;-68
2021/03/02 05:47:30;;;;;;;16.95;7.70;;;;;;;;;;5054019;28;20033;-68
2021/03/02 05:50:34;;;;;;;12.55;6.88;;;;;;;;;;5053943;28;20041;-68
2021/03/02 05:57:02;;;;;;;20.17;8.13;;;;;;;;;;5052526;28;20060;-68
2021/03/02 06:00:06;;;;;;;31.10;7.85;;;;;;;;;;5053567;28;20471;-68
2021/03/02 06:03:11;;;;;;;14.82;6.93;;;;;;;;;;5053803;28;20049;-68
2021/03/02 06:06:16;;;;;;;12.88;6.88;;;;;;;;;;5053674;28;20045;-68
2021/03/02 06:09:20;;;;;;;10.65;6.50;;;;;;;;;;5052670;28;20032;-68
2021/03/02 06:12:25;;;;;;;20.85;6.47;;;;;;;;;;5053433;28;20044;-68
2021/03/02 06:15:29;;;;;;;22.63;6.43;;;;;;;;;;5053078;28;20043;-68
2021/03/02 06:18:34;;;;;;;14.10;6.97;;;;;;;;;;5053356;28;20046;-68
2021/03/02 06:21:38;;;;;;;11.05;5.95;;;;;;;;;;5053006;28;20494;-68
2021/03/02 06:24:42;;;;;;;19.40;7.65;;;;;;;;;;5053350;28;20041;-69
2021/03/02 06:27:47;;;;;;;17.17;7.78;;;;;;;;;;5052634;28;20112;-68
2021/03/02 06:30:51;;;;;;;14.07;6.57;;;;;;;;;;5052834;28;20044;-67
2021/03/02 06:34:09;;;;;;;19.75;6.25;;;;;;;;;;5053140;28;20044;-66
2021/03/02 06:37:12;;;;;;;10.23;6.50;;;;;;;;;;5053011;28;20052;-67
2021/03/02 06:40:17;;;;;;;12.77;7.03;;;;;;;;;;5053020;28;20041;-67
2021/03/02 06:43:40;;;;;;;20.45;7.50;;;;;;;;;;5053098;28;20040;-67
2021/03/02 06:46:44;;;;;;;14.23;6.93;;;;;;;;;;5052749;28;20044;-67
2021/03/02 06:49:49;;;;;;;12.60;6.30;;;;;;;;;;5053095;28;20044;-67
2021/03/02 06:52:54;;;;;;;12.38;5.30;;;;;;;;;;5053233;28;20036;-69
2021/03/02 06:56:11;;;;;;;24.48;13.38;;;;;;;;;;5052881;28;20045;-67
2021/03/02 06:59:17;;;;;;;47.08;22.23;;;;;;;;;;5053205;28;20384;-66
2021/03/02 07:02:40;;;;;;;35.58;19.23;;;;;;;;;;5052696;28;20048;-67
2021/03/02 07:05:47;;;;;;;86.88;40.08;;;;;;;;;;5053037;28;20104;-67
2021/03/02 07:08:55;;;;;;;;;;;;;;;;;;5053159;28;20048;-66
2021/03/02 07:12:01;;;;;;;70.00;33.97;;;;;;;;;;5052758;28;19924;-67
2021/03/02 07:15:06;;;;;;;57.63;24.73;;;;;;;;;;5052887;28;20040;-66
2021/03/02 07:18:11;;;;;;;26.17;13.38;;;;;;;;;;5052640;28;20048;-66
2021/03/02 07:21:15;;;;;;;27.63;14.05;;;;;;;;;;5052860;28;20048;-65
2021/03/02 07:24:22;;;;;;;23.42;11.85;;;;;;;;;;5052741;28;20537;-65
2021/03/02 07:27:26;;;;;;;23.08;9.48;;;;;;;;;;5052452;28;20063;-65
2021/03/02 07:30:31;;;;;;;20.45;10.13;;;;;;;;;;5052673;28;20055;-65
2021/03/02 07:33:39;;;;;;;16.20;7.20;;;;;;;;;;5056346;28;20068;-65
2021/03/02 07:36:44;;;;;;;64.18;43.97;;;;;;;;;;5056120;28;20053;-66
2021/03/02 07:40:01;;;;;;;18.73;9.38;;;;;;;;;;5056112;28;20040;-64
2021/03/02 07:43:22;;;;;;;18.90;9.20;;;;;;;;;;5055659;28;20361;-65
2021/03/02 07:46:27;;;;;;;24.48;9.77;;;;;;;;;;5055598;28;20403;-66
2021/03/02 07:49:32;;;;;;;13.98;7.03;;;;;;;;;;5055664;28;20040;-65
2021/03/02 07:52:37;;;;;;;15.13;7.70;;;;;;;;;;5054879;28;20040;-64
2021/03/02 07:55:42;;;;;;;17.70;7.03;;;;;;;;;;5055825;28;20041;-65
2021/03/02 07:59:04;;;;;;;11.02;6.70;;;;;;;;;;5055561;28;20389;-65
2021/03/02 08:02:15;;;;;;;10.57;6.38;;;;;;;;;;5055887;28;20033;-65
2021/03/02 08:05:28;;;;;;;13.75;6.20;;;;;;;;;;5055892;28;20060;-65
2021/03/02 08:08:33;;;;;;;11.75;6.40;;;;;;;;;;5055734;28;20033;-67
2021/03/02 08:11:37;;;;;;;15.90;6.18;;;;;;;;;;5055448;28;20136;-66
2021/03/02 08:14:56;;;;;;;13.02;5.65;;;;;;;;;;5055597;28;20032;-66
2021/03/02 08:18:26;;;;;;;11.20;6.20;;;;;;;;;;5055163;28;20044;-66
2021/03/02 08:21:33;;;;;;;9.52;6.10;;;;;;;;;;5055648;28;20044;-66
2021/03/02 08:24:54;;;;;;;12.30;5.95;;;;;;;;;;5054353;28;20358;-66
2021/03/02 08:28:02;;;;;;;16.08;6.22;;;;;;;;;;5055318;28;20046;-66
2021/03/02 08:31:13;;;;;;;11.70;6.45;;;;;;;;;;5055160;28;20040;-65
2021/03/02 08:34:19;;;;;;;12.82;6.60;;;;;;;;;;5055376;28;20048;-66
2021/03/02 08:37:42;;;;;;;14.32;7.28;;;;;;;;;;5055057;28;20052;-66
2021/03/02 08:40:47;;;;;;;15.20;7.18;;;;;;;;;;5056323;28;20040;-66
2021/03/02 08:43:51;;;;;;;16.98;7.25;;;;;;;;;;5054951;28;20491;-67
2021/03/02 08:46:56;;;;;;;13.98;7.03;;;;;;;;;;5054877;28;20385;-66
2021/03/02 08:50:00;;;;;;;16.35;7.15;;;;;;;;;;5054674;28;20037;-66
2021/03/02 08:53:05;;;;;;;13.30;6.60;;;;;;;;;;5055270;28;20456;-66
2021/03/02 08:56:31;;;;;;;18.98;7.68;;;;;;;;;;5054405;28;20360;-65
2021/03/02 08:59:35;;;;;;;12.43;6.45;;;;;;;;;;5054770;28;20033;-66
2021/03/02 09:02:46;;;;;;;13.40;7.07;;;;;;;;;;5054842;28;20037;-66
2021/03/02 09:06:09;;;;;;;17.35;8.23;;;;;;;;;;5054438;28;20033;-65
2021/03/02 09:09:15;;;;;;;12.07;7.43;;;;;;;;;;5054567;28;20044;-66
2021/03/02 09:12:19;;;;;;;15.35;7.50;;;;;;;;;;5054665;28;20040;-66
2021/03/02 09:15:34;;;;;;;14.48;7.22;;;;;;;;;;5053938;28;20095;-65
2021/03/02 09:18:38;;;;;;;13.00;6.70;;;;;;;;;;5054487;28;20041;-66
2021/03/02 09:21:47;;;;;;;10.52;6.75;;;;;;;;;;5054207;28;20040;-66
2021/03/02 09:24:56;;;;;;;12.35;7.13;;;;;;;;;;5054030;28;20075;-67
2021/03/02 09:28:01;;;;;;;14.13;6.53;;;;;;;;;;5054362;28;20041;-67
2021/03/02 09:31:05;;;;;;;16.15;7.15;;;;;;;;;;5053687;28;20044;-66
2021/03/02 09:34:10;;;;;;;16.05;7.80;;;;;;;;;;5054248;28;20044;-67
2021/03/02 09:37:19;;;;;;;13.57;7.70;;;;;;;;;;5053912;28;20045;-67
2021/03/02 09:40:23;;;;;;;13.15;7.03;;;;;;;;;;5053719;28;20036;-68
2021/03/02 09:43:37;;;;;;;13.20;6.90;;;;;;;;;;5053139;28;20076;-66
2021/03/02 09:46:41;;;;;;;14.70;7.75;;;;;;;;;;5053500;28;20468;-66
2021/03/02 09:49:47;;;;;;;14.25;7.47;;;;;;;;;;5053919;28;20041;-67
2021/03/02 09:52:52;;;;;;;12.88;7.85;;;;;;;;;;5053759;28;20365;-67
2021/03/02 09:55:57;;;;;;;17.83;8.88;;;;;;;;;;5053709;28;20032;-67
2021/03/02 09:59:02;;;;;;;14.32;7.43;;;;;;;;;;5052844;28;20048;-68
2021/03/02 10:02:08;;;;;;;16.45;8.77;;;;;;;;;;5052355;28;20033;-68
2021/03/02 10:05:12;;;;;;;16.00;8.65;;;;;;;;;;5053586;28;20037;-67
2021/03/02 10:08:36;;;;;;;15.68;7.88;;;;;;;;;;5053125;28;20048;-65
2021/03/02 10:11:41;;;;;;;19.13;8.82;;;;;;;;;;5053618;28;20040;-67
2021/03/02 10:14:45;;;;;;;16.40;8.30;;;;;;;;;;5053419;28;20057;-67
2021/03/02 10:17:56;;;;;;;14.38;8.65;;;;;;;;;;5053153;28;20495;-67
2021/03/02 10:21:03;;;;;;;16.58;8.52;;;;;;;;;;5053367;28;20033;-67
2021/03/02 10:24:08;;;;;;;18.90;9.25;;;;;;;;;;5052345;28;20041;-66
2021/03/02 10:27:15;;;;;;;19.08;9.20;;;;;;;;;;5052849;28;20038;-66
2021/03/02 10:30:19;;;;;;;18.02;9.00;;;;;;;;;;5053082;28;20423;-66
2021/03/02 10:33:23;;;;;;;17.20;9.15;;;;;;;;;;5052016;28;20041;-67
2021/03/02 10:36:29;;;;;;;16.50;8.35;;;;;;;;;;5051946;28;20049;-67
2021/03/02 10:39:33;;;;;;;23.83;9.95;;;;;;;;;;5052995;28;20046;-66
2021/03/02 10:42:37;;;;;;;17.38;8.70;;;;;;;;;;5052993;28;20044;-68
2021/03/02 10:45:42;;;;;;;18.92;9.02;;;;;;;;;;5052869;28;20048;-67
2021/03/02 10:48:47;;;;;;;23.17;14.23;;;;;;;;;;5304709;22;20053;-66
2021/03/02 10:51:51;;;;;;;20.85;9.85;;;;;;;;;;5050984;28;20052;-66
2021/03/02 10:54:55;;;;;;;19.38;9.65;;;;;;;;;;5050599;28;20456;-66
2021/03/02 10:58:01;;;;;;;19.27;9.60;;;;;;;;;;5050595;28;20049;-69
2021/03/02 11:01:05;;;;;;;21.27;9.27;;;;;;;;;;5050499;28;20520;-69
2021/03/02 11:04:09;;;;;;;18.98;9.18;;;;;;;;;;5050149;28;20037;-69
2021/03/02 11:07:14;;;;;;;12.50;7.32;;;;;;;;;;5052397;28;20059;-68
2021/03/02 11:10:18;;;;;;;14.50;8.57;;;;;;;;;;5054100;28;20108;-68
2021/03/02 11:13:23;;;;;;;16.15;8.43;;;;;;;;;;5054293;28;20064;-68
2021/03/02 11:16:27;;;;;;;13.07;8.43;;;;;;;;;;5054063;28;20052;-69
2021/03/02 11:19:31;;;;;;;14.63;8.60;;;;;;;;;;5054082;28;20045;-68
2021/03/02 11:22:36;;;;;;;14.13;7.70;;;;;;;;;;5054152;28;20101;-68
2021/03/02 11:25:41;;;;;;;13.45;7.60;;;;;;;;;;5053949;28;20037;-67
2021/03/02 11:28:46;;;;;;;14.93;8.90;;;;;;;;;;5053990;28;20230;-68
2021/03/02 11:31:50;;;;;;;15.70;8.88;;;;;;;;;;5054247;28;20507;-67
2021/03/02 11:34:54;;;;;;;14.68;8.35;;;;;;;;;;5053656;28;20037;-67
2021/03/02 11:37:59;;;;;;;14.75;7.93;;;;;;;;;;5053590;28;20049;-67
2021/03/02 11:41:04;;;;;;;17.20;7.85;;;;;;;;;;5054135;28;20059;-64
2021/03/02 11:44:08;;;;;;;13.80;7.32;;;;;;;;;;5053979;28;20071;-66
2021/03/02 11:47:12;;;;;;;14.00;8.40;;;;;;;;;;5053523;28;20037;-67
2021/03/02 11:50:17;;;;;;;18.10;8.10;;;;;;;;;;5053320;28;20042;-67
2021/03/02 11:53:21;;;;;;;14.98;8.45;;;;;;;;;;5053486;28;20029;-68
2021/03/02 11:56:28;;;;;;;14.27;8.63;;;;;;;;;;5053378;28;20045;-67
2021/03/02 11:59:33;;;;;;;11.52;7.95;;;;;;;;;;5052404;28;20037;-67
2021/03/02 12:02:39;;;;;;;12.55;7.72;;;;;;;;;;5052585;28;20060;-65
2021/03/02 12:05:44;;;;;;;12.85;7.68;;;;;;;;;;5053827;28;20384;-67
2021/03/02 12:08:48;;;;;;;16.13;8.20;;;;;;;;;;5053376;28;20045;-67
2021/03/02 12:11:52;;;;;;;15.05;8.95;;;;;;;;;;5053453;28;20681;-66
2021/03/02 12:14:56;;;;;;;14.00;8.00;;;;;;;;;;5053394;28;20037;-68
2021/03/02 12:18:01;;;;;;;17.92;8.27;;;;;;;;;;5052458;28;20503;-68
2021/03/02 12:21:05;;;;;;;19.48;10.27;;;;;;;;;;5052679;28;20502;-66
2021/03/02 12:24:09;;;;;;;12.82;8.10;;;;;;;;;;5053071;28;20392;-67
2021/03/02 12:27:15;;;;;;;17.35;9.40;;;;;;;;;;5053136;28;20037;-67
2021/03/02 12:30:20;;;;;;;14.48;8.48;;;;;;;;;;5053307;28;20048;-68
2021/03/02 12:33:24;;;;;;;15.93;9.48;;;;;;;;;;5052448;28;20033;-67
2021/03/02 12:36:29;;;;;;;12.55;8.13;;;;;;;;;;5052974;28;20044;-67
2021/03/02 12:39:33;;;;;;;14.68;7.90;;;;;;;;;;5053011;28;20456;-65
2021/03/02 12:42:38;;;;;;;11.65;7.78;;;;;;;;;;5052961;28;20072;-66
2021/03/02 12:45:42;;;;;;;15.30;8.68;;;;;;;;;;5053005;28;20033;-66
2021/03/02 12:48:47;;;;;;;16.67;8.45;;;;;;;;;;5053060;28;20037;-66
2021/03/02 12:51:52;;;;;;;15.98;8.10;;;;;;;;;;5051417;28;20033;-65
2021/03/02 12:54:56;;;;;;;11.48;8.68;;;;;;;;;;5051497;28;20044;-65
2021/03/02 12:58:00;;;;;;;14.32;8.07;;;;;;;;;;5051199;28;20055;-66
2021/03/02 13:01:05;;;;;;;12.68;8.80;;;;;;;;;;5052542;28;20041;-65
2021/03/02 13:04:10;;;;;;;15.35;8.70;;;;;;;;;;5052489;28;20040;-64
2021/03/02 13:07:17;;;;;;;25.55;17.50;;;;;;;;;;5052345;28;20044;-68
2021/03/02 13:10:21;;;;;;;19.08;11.18;;;;;;;;;;5052308;28;20039;-66
2021/03/02 13:13:26;;;;;;;17.80;10.38;;;;;;;;;;5052092;28;20044;-67
2021/03/02 13:16:30;;;;;;;19.20;11.38;;;;;;;;;;5052384;28;20400;-67
2021/03/02 13:19:35;;;;;;;16.58;11.15;;;;;;;;;;5052428;28;20396;-66
2021/03/02 13:22:40;;;;;;;17.40;9.88;;;;;;;;;;5052260;28;20435;-68
2021/03/02 13:25:44;;;;;;;14.13;10.70;;;;;;;;;;5052177;28;20052;-67
2021/03/02 13:28:49;;;;;;;13.55;9.00;;;;;;;;;;5051314;28;20044;-67
2021/03/02 13:31:54;;;;;;;14.50;9.60;;;;;;;;;;5051936;28;20043;-65
2021/03/02 13:34:59;;;;;;;15.18;9.07;;;;;;;;;;5052108;28;20052;-66
2021/03/02 13:38:05;;;;;;;16.63;9.73;;;;;;;;;;5051539;28;20499;-66
2021/03/02 13:41:09;;;;;;;20.38;9.32;;;;;;;;;;5051494;28;20041;-66
2021/03/02 13:44:16;;;;;;;22.30;8.93;;;;;;;;;;5051691;28;20104;-66
2021/03/02 13:47:20;;;;;;;27.42;17.08;;;;;;;;;;5052065;28;20033;-68
2021/03/02 13:50:25;;;;;;;17.13;10.18;;;;;;;;;;5051924;28;20380;-66
2021/03/02 13:53:32;;;;;;;13.30;10.00;;;;;;;;;;5051878;28;20040;-66
2021/03/02 13:56:37;;;;;;;16.70;10.90;;;;;;;;;;5051603;28;20651;-66
2021/03/02 13:59:41;;;;;;;18.70;11.50;;;;;;;;;;5051302;28;20127;-65
2021/03/02 14:02:46;;;;;;;20.33;12.13;;;;;;;;;;5051652;28;20055;-65
2021/03/02 14:05:51;;;;;;;16.45;10.32;;;;;;;;;;5051186;28;20131;-66
2021/03/02 14:08:56;;;;;;;19.13;9.10;;;;;;;;;;5051299;28;20044;-66
2021/03/02 14:12:01;;;;;;;18.88;11.75;;;;;;;;;;5050993;28;20051;-66
2021/03/02 14:15:05;;;;;;;19.23;10.68;;;;;;;;;;5051072;28;20036;-65
2021/03/02 14:18:13;;;;;;;15.20;9.95;;;;;;;;;;5051035;28;20051;-65
2021/03/02 14:21:17;;;;;;;15.95;9.13;;;;;;;;;;5051083;28;20025;-65
2021/03/02 14:24:22;;;;;;;19.65;9.80;;;;;;;;;;5050904;28;20041;-66
2021/03/02 14:27:26;;;;;;;16.23;9.73;;;;;;;;;;5050849;28;20148;-66
2021/03/02 14:30:31;;;;;;;15.23;10.27;;;;;;;;;;5050956;28;20041;-66
2021/03/02 14:33:35;;;;;;;52.75;37.58;;;;;;;;;;5050904;28;20048;-66
2021/03/02 14:36:39;;;;;;;17.52;10.30;;;;;;;;;;5050797;28;20044;-66
2021/03/02 14:39:44;;;;;;;10.80;7.32;;;;;;;;;;5051972;28;20048;-66
2021/03/02 14:42:49;;;;;;;19.15;7.57;;;;;;;;;;5056501;28;20372;-66
2021/03/02 14:45:54;;;;;;;12.85;7.55;;;;;;;;;;5057523;28;20047;-66
2021/03/02 14:49:06;;;;;;;13.57;7.50;;;;;;;;;;5057092;28;20411;-66
2021/03/02 14:52:12;;;;;;;10.70;7.53;;;;;;;;;;5057110;28;20033;-67
2021/03/02 14:55:18;;;;;;;12.25;6.80;;;;;;;;;;5057489;28;20048;-68
2021/03/02 14:58:23;;;;;;;14.95;7.43;;;;;;;;;;5057167;28;20401;-66
2021/03/02 15:01:33;;;;;;;12.18;7.50;;;;;;;;;;5057233;28;20047;-66
2021/03/02 15:04:37;;;;;;;13.57;6.95;;;;;;;;;;5056926;28;20029;-67
2021/03/02 15:07:42;;;;;;;15.82;6.88;;;;;;;;;;5056925;28;20060;-66
2021/03/02 15:10:47;;;;;;;12.50;6.85;;;;;;;;;;5056885;28;20102;-67
2021/03/02 15:13:52;;;;;;;22.33;7.10;;;;;;;;;;5057057;28;20045;-66
2021/03/02 15:16:59;;;;;;;13.25;7.63;;;;;;;;;;5057187;28;20033;-66
2021/03/02 15:20:10;;;;;;;12.70;7.40;;;;;;;;;;5057047;28;20056;-65
2021/03/02 15:23:14;;;;;;;15.13;7.35;;;;;;;;;;5056856;28;20028;-65
2021/03/02 15:26:19;;;;;;;18.83;8.40;;;;;;;;;;5056816;28;20409;-64
2021/03/02 15:29:24;;;;;;;13.13;7.85;;;;;;;;;;5056763;28;20059;-66
2021/03/02 15:32:29;;;;;;;14.05;6.65;;;;;;;;;;5056859;28;20368;-66
2021/03/02 15:35:34;;;;;;;14.45;7.35;;;;;;;;;;5057246;28;20057;-67
2021/03/02 15:38:40;;;;;;;19.08;7.32;;;;;;;;;;5056961;28;20057;-66
2021/03/02 15:41:44;;;;;;;13.20;8.05;;;;;;;;;;5056235;28;20037;-67
2021/03/02 15:44:49;;;;;;;16.40;7.22;;;;;;;;;;5056987;28;20515;-68
2021/03/02 15:47:57;;;;;;;12.77;7.68;;;;;;;;;;5056461;28;20044;-67
2021/03/02 15:51:03;;;;;;;14.98;8.02;;;;;;;;;;5056288;28;20064;-67
2021/03/02 15:54:08;;;;;;;14.68;7.28;;;;;;;;;;5053612;28;20040;-68
2021/03/02 15:57:12;;;;;;;24.85;10.68;;;;;;;;;;5053661;28;20041;-68
2021/03/02 16:00:26;;;;;;;18.25;9.27;;;;;;;;;;5053495;28;20048;-67
2021/03/02 16:03:31;;;;;;;20.45;8.38;;;;;;;;;;5053692;28;20456;-66
2021/03/02 16:06:40;;;;;;;15.25;7.80;;;;;;;;;;5053472;28;20032;-66
2021/03/02 16:09:46;;;;;;;16.60;7.47;;;;;;;;;;5053555;28;20048;-67
2021/03/02 16:12:54;;;;;;;27.58;11.88;;;;;;;;;;5053159;28;20037;-67
2021/03/02 16:15:59;;;;;;;27.83;9.38;;;;;;;;;;5053121;28;20044;-68
2021/03/02 16:19:05;;;;;;;15.68;8.88;;;;;;;;;;5053078;28;20071;-66
2021/03/02 16:22:11;;;;;;;25.35;12.25;;;;;;;;;;5052941;28;20042;-67
2021/03/02 16:25:17;;;;;;;35.28;18.88;;;;;;;;;;5053164;28;20043;-66
2021/03/02 16:28:22;;;;;;;24.85;12.02;;;;;;;;;;5052857;28;20036;-67
2021/03/02 16:31:27;;;;;;;18.88;9.23;;;;;;;;;;5052208;28;20064;-68
2021/03/02 16:34:32;;;;;;;14.77;8.82;;;;;;;;;;5052693;28;20044;-67
2021/03/02 16:37:36;;;;;;;14.38;8.75;;;;;;;;;;5051931;28;20510;-67
2021/03/02 16:40:44;;;;;;;19.15;9.10;;;;;;;;;;5052429;28;20588;-68
2021/03/02 16:43:50;;;;;;;16.25;10.05;;;;;;;;;;5052446;28;20396;-66
2021/03/02 16:46:54;;;;;;;14.55;9.68;;;;;;;;;;5052650;28;20048;-68
2021/03/02 16:50:01;;;;;;;29.65;10.82;;;;;;;;;;5052376;28;20407;-67
2021/03/02 16:53:07;;;;;;;19.90;8.93;;;;;;;;;;5052690;28;20392;-67
2021/03/02 16:56:13;;;;;;;29.98;8.98;;;;;;;;;;5052613;28;20410;-66
2021/03/02 16:59:20;;;;;;;14.43;9.02;;;;;;;;;;5051939;28;20111;-67
2021/03/02 17:02:25;;;;;;;18.23;9.32;;;;;;;;;;5052307;28;20029;-66
2021/03/02 17:05:30;;;;;;;18.63;8.50;;;;;;;;;;5051520;28;20369;-67
2021/03/02 17:08:35;;;;;;;22.30;8.63;;;;;;;;;;5052128;28;20051;-66
2021/03/02 17:11:39;;;;;;;17.70;9.93;;;;;;;;;;5051563;28;20491;-68
2021/03/02 17:14:47;;;;;;;21.30;8.90;;;;;;;;;;5052446;28;20049;-67
2021/03/02 17:17:52;;;;;;;19.98;10.35;;;;;;;;;;5050772;28;20111;-67
2021/03/02 17:20:56;;;;;;;23.23;10.90;;;;;;;;;;5051827;28;20048;-66
2021/03/02 17:24:02;;;;;;;24.60;11.30;;;;;;;;;;5051861;28;20052;-66
2021/03/02 17:27:06;;;;;;;35.25;13.85;;;;;;;;;;5050844;28;20402;-67
2021/03/02 17:30:11;;;;;;;34.55;15.13;;;;;;;;;;5051846;28;20044;-67
2021/03/02 17:33:15;;;;;;;30.00;14.60;;;;;;;;;;5051183;28;20048;-67
2021/03/02 17:36:19;;;;;;;26.50;15.00;;;;;;;;;;5051387;28;20044;-66
2021/03/02 17:39:24;;;;;;;28.25;15.60;;;;;;;;;;5051170;28;20522;-66
2021/03/02 17:42:28;;;;;;;25.92;15.98;;;;;;;;;;5050821;28;20047;-67
2021/03/02 17:45:33;;;;;;;24.38;15.23;;;;;;;;;;5051301;28;20052;-66
2021/03/02 17:48:37;;;;;;;35.55;19.13;;;;;;;;;;5051364;28;20515;-66
2021/03/02 17:51:41;;;;;;;45.70;23.17;;;;;;;;;;5051580;28;20044;-66
2021/03/02 17:54:47;;;;;;;35.28;19.85;;;;;;;;;;5051436;28;20044;-64
2021/03/02 17:57:51;;;;;;;30.50;15.13;;;;;;;;;;5051200;28;20056;-65
2021/03/02 18:00:55;;;;;;;27.13;14.68;;;;;;;;;;5050840;28;20491;-65
2021/03/02 18:04:00;;;;;;;29.90;16.20;;;;;;;;;;5050652;28;20048;-65
2021/03/02 18:07:08;;;;;;;31.02;18.25;;;;;;;;;;5049778;28;20044;-66
2021/03/02 18:10:13;;;;;;;46.53;24.17;;;;;;;;;;5050608;28;20048;-66
2021/03/02 18:13:17;;;;;;;46.22;21.83;;;;;;;;;;5050909;28;20052;-66